Main page
METAR-TAF:

METAR-TAF

Airports :

Shizuoka Airport

Shizuoka, Japan

latitude: 34-47-46N, longitude: 138-11-22E, elevation: 132 m

Current weather observation

The report was made 1 hour and 3 minutes ago, at 23:00 UTC
Wind 3 kt from the Northwest
Temperature 7°C
Humidity 57%
Pressure 1025 hPa
Visibility 10 km or more
Few clouds at a height of 3000 ft
Broken clouds at a height of 4000 ft

METAR: RJNS 042300Z 32003KT 9999 FEW030 BKN040 07/M01 Q1025

Time: 09:03 (00:03 UTC)

Forecast

The report was made 50 minutes ago, at 23:13 UTC
Forecast valid from 05 at 00 UTC to 06 at 06 UTC
Wind 4 kt from the Northwest
Visibility 10 km or more
Few clouds at a height of 3000 ft
Becoming
from 05 at 00 UTC to 05 at 02 UTC
Wind 5 kt from the East

TAF: RJNS 042313Z 0500/0606 32004KT 9999 FEW030 BECMG 0500/0502 10005KT

Weather observations and forecasts of more than 4000 airports (METAR and TAF reports).

The available stations are represented by yellow and red dots on the map.

Hover mouse over dot to see the name of the station.

Then click to see weather observations and forecasts.

To change the map : click on the green buttons with a black cross to zoom in, on the green button with a dash to zoom out, or on the green arrows for adjacent maps.


METAR-TAF: